sensor_id;sensor_type;location;lat;lon;timestamp;temperature;humidity
17893;DHT22;9072;51.918;4.380;2023-09-07T00:00:16;22.00;99.90
17893;DHT22;9072;51.918;4.380;2023-09-07T00:02:46;22.00;99.90
17893;DHT22;9072;51.918;4.380;2023-09-07T00:05:13;22.00;99.90
17893;DHT22;9072;51.918;4.380;2023-09-07T00:07:41;22.00;99.90
17893;DHT22;9072;51.918;4.380;2023-09-07T00:10:09;22.00;99.90
17893;DHT22;9072;51.918;4.380;2023-09-07T00:12:36;22.00;99.90
17893;DHT22;9072;51.918;4.380;2023-09-07T00:15:05;22.00;99.90
17893;DHT22;9072;51.918;4.380;2023-09-07T00:17:34;22.00;99.90
17893;DHT22;9072;51.918;4.380;2023-09-07T00:20:01;21.90;99.90
17893;DHT22;9072;51.918;4.380;2023-09-07T00:22:35;21.90;99.90
17893;DHT22;9072;51.918;4.380;2023-09-07T00:25:02;21.90;99.90
17893;DHT22;9072;51.918;4.380;2023-09-07T00:27:32;21.80;99.90
17893;DHT22;9072;51.918;4.380;2023-09-07T00:30:00;21.80;99.90
17893;DHT22;9072;51.918;4.380;2023-09-07T00:32:27;21.80;99.90
17893;DHT22;9072;51.918;4.380;2023-09-07T00:34:55;21.70;99.90
17893;DHT22;9072;51.918;4.380;2023-09-07T00:37:22;21.70;99.90
17893;DHT22;9072;51.918;4.380;2023-09-07T00:39:49;21.60;99.90
17893;DHT22;9072;51.918;4.380;2023-09-07T00:42:18;21.60;99.90
17893;DHT22;9072;51.918;4.380;2023-09-07T00:44:45;21.50;99.90
17893;DHT22;9072;51.918;4.380;2023-09-07T00:47:14;21.40;99.90
17893;DHT22;9072;51.918;4.380;2023-09-07T00:49:41;21.30;99.90
17893;DHT22;9072;51.918;4.380;2023-09-07T00:52:13;21.30;99.90
17893;DHT22;9072;51.918;4.380;2023-09-07T00:54:42;21.20;99.90
17893;DHT22;9072;51.918;4.380;2023-09-07T00:57:09;21.10;99.90
17893;DHT22;9072;51.918;4.380;2023-09-07T00:59:37;21.00;99.90
17893;DHT22;9072;51.918;4.380;2023-09-07T01:02:04;21.00;99.90
17893;DHT22;9072;51.918;4.380;2023-09-07T01:04:32;20.90;99.90
17893;DHT22;9072;51.918;4.380;2023-09-07T01:07:03;20.80;99.90
17893;DHT22;9072;51.918;4.380;2023-09-07T01:09:36;20.70;99.90
17893;DHT22;9072;51.918;4.380;2023-09-07T01:12:14;20.60;99.90
17893;DHT22;9072;51.918;4.380;2023-09-07T01:14:41;20.60;99.90
17893;DHT22;9072;51.918;4.380;2023-09-07T01:17:09;20.60;99.90
17893;DHT22;9072;51.918;4.380;2023-09-07T01:19:37;20.60;99.90
17893;DHT22;9072;51.918;4.380;2023-09-07T01:22:07;20.50;99.90
17893;DHT22;9072;51.918;4.380;2023-09-07T01:24:36;20.50;99.90
17893;DHT22;9072;51.918;4.380;2023-09-07T01:27:07;20.40;99.90
17893;DHT22;9072;51.918;4.380;2023-09-07T01:29:35;20.40;99.90
17893;DHT22;9072;51.918;4.380;2023-09-07T01:32:03;20.40;99.90
17893;DHT22;9072;51.918;4.380;2023-09-07T01:34:31;20.30;99.90
17893;DHT22;9072;51.918;4.380;2023-09-07T01:36:58;20.30;99.90
17893;DHT22;9072;51.918;4.380;2023-09-07T01:39:26;20.20;99.90
17893;DHT22;9072;51.918;4.380;2023-09-07T01:41:54;20.20;99.90
17893;DHT22;9072;51.918;4.380;2023-09-07T01:44:21;20.10;99.90
17893;DHT22;9072;51.918;4.380;2023-09-07T01:46:48;20.10;99.90
17893;DHT22;9072;51.918;4.380;2023-09-07T01:49:15;20.10;99.90
17893;DHT22;9072;51.918;4.380;2023-09-07T01:51:42;20.20;99.90
17893;DHT22;9072;51.918;4.380;2023-09-07T01:54:09;20.10;99.90
17893;DHT22;9072;51.918;4.380;2023-09-07T01:56:39;20.10;99.90
17893;DHT22;9072;51.918;4.380;2023-09-07T01:59:07;20.10;99.90
17893;DHT22;9072;51.918;4.380;2023-09-07T02:01:36;20.10;99.90
17893;DHT22;9072;51.918;4.380;2023-09-07T02:04:07;20.00;99.90
17893;DHT22;9072;51.918;4.380;2023-09-07T02:06:34;20.00;99.90
17893;DHT22;9072;51.918;4.380;2023-09-07T02:09:01;19.90;99.90
17893;DHT22;9072;51.918;4.380;2023-09-07T02:11:29;19.90;99.90
17893;DHT22;9072;51.918;4.380;2023-09-07T02:14:00;19.90;99.90
17893;DHT22;9072;51.918;4.380;2023-09-07T02:16:28;19.90;99.90
17893;DHT22;9072;51.918;4.380;2023-09-07T02:19:01;19.80;99.90
17893;DHT22;9072;51.918;4.380;2023-09-07T02:21:30;19.90;99.90
17893;DHT22;9072;51.918;4.380;2023-09-07T02:23:58;19.90;99.90
17893;DHT22;9072;51.918;4.380;2023-09-07T02:26:25;19.80;99.90
17893;DHT22;9072;51.918;4.380;2023-09-07T02:28:52;19.80;99.90
17893;DHT22;9072;51.918;4.380;2023-09-07T02:31:20;19.70;99.90
17893;DHT22;9072;51.918;4.380;2023-09-07T02:33:48;19.70;99.90
17893;DHT22;9072;51.918;4.380;2023-09-07T02:36:15;19.70;99.90
17893;DHT22;9072;51.918;4.380;2023-09-07T02:38:42;19.70;99.90
17893;DHT22;9072;51.918;4.380;2023-09-07T02:41:09;19.60;99.90
17893;DHT22;9072;51.918;4.380;2023-09-07T02:43:36;19.60;99.90
17893;DHT22;9072;51.918;4.380;2023-09-07T02:46:04;19.60;99.90
17893;DHT22;9072;51.918;4.380;2023-09-07T02:48:32;19.50;99.90
17893;DHT22;9072;51.918;4.380;2023-09-07T02:50:59;19.50;99.90
17893;DHT22;9072;51.918;4.380;2023-09-07T02:53:28;19.50;99.90
17893;DHT22;9072;51.918;4.380;2023-09-07T02:55:55;19.40;99.90
17893;DHT22;9072;51.918;4.380;2023-09-07T02:58:23;19.50;99.90
17893;DHT22;9072;51.918;4.380;2023-09-07T03:00:53;19.40;99.90
17893;DHT22;9072;51.918;4.380;2023-09-07T03:03:20;19.40;99.90
17893;DHT22;9072;51.918;4.380;2023-09-07T03:05:49;19.30;99.90
17893;DHT22;9072;51.918;4.380;2023-09-07T03:08:17;19.30;99.90
17893;DHT22;9072;51.918;4.380;2023-09-07T03:10:44;19.30;99.90
17893;DHT22;9072;51.918;4.380;2023-09-07T03:13:11;19.30;99.90
17893;DHT22;9072;51.918;4.380;2023-09-07T03:15:38;19.30;99.90
17893;DHT22;9072;51.918;4.380;2023-09-07T03:18:06;19.30;99.90
17893;DHT22;9072;51.918;4.380;2023-09-07T03:20:33;19.20;99.90
17893;DHT22;9072;51.918;4.380;2023-09-07T03:23:02;19.20;99.90
17893;DHT22;9072;51.918;4.380;2023-09-07T03:25:30;19.10;99.90
17893;DHT22;9072;51.918;4.380;2023-09-07T03:27:57;19.10;99.90
17893;DHT22;9072;51.918;4.380;2023-09-07T03:30:24;19.10;99.90
17893;DHT22;9072;51.918;4.380;2023-09-07T03:32:52;19.00;99.90
17893;DHT22;9072;51.918;4.380;2023-09-07T03:35:19;19.00;99.90
17893;DHT22;9072;51.918;4.380;2023-09-07T03:37:46;19.00;99.90
17893;DHT22;9072;51.918;4.380;2023-09-07T03:40:15;18.90;99.90
17893;DHT22;9072;51.918;4.380;2023-09-07T03:42:42;19.00;99.90
17893;DHT22;9072;51.918;4.380;2023-09-07T03:45:12;19.00;99.90
17893;DHT22;9072;51.918;4.380;2023-09-07T03:47:39;18.90;99.90
17893;DHT22;9072;51.918;4.380;2023-09-07T03:50:06;19.00;99.90
17893;DHT22;9072;51.918;4.380;2023-09-07T03:52:34;18.90;99.90
17893;DHT22;9072;51.918;4.380;2023-09-07T03:55:01;18.90;99.90
17893;DHT22;9072;51.918;4.380;2023-09-07T03:57:30;18.90;99.90
17893;DHT22;9072;51.918;4.380;2023-09-07T04:00:00;18.80;99.90
17893;DHT22;9072;51.918;4.380;2023-09-07T04:02:31;18.70;99.90
17893;DHT22;9072;51.918;4.380;2023-09-07T04:04:58;18.60;99.90
17893;DHT22;9072;51.918;4.380;2023-09-07T04:07:27;18.60;99.90
17893;DHT22;9072;51.918;4.380;2023-09-07T04:09:54;18.60;99.90
17893;DHT22;9072;51.918;4.380;2023-09-07T04:12:24;18.50;99.90
17893;DHT22;9072;51.918;4.380;2023-09-07T04:14:54;18.40;99.90
17893;DHT22;9072;51.918;4.380;2023-09-07T04:17:21;18.40;99.90
17893;DHT22;9072;51.918;4.380;2023-09-07T04:19:48;18.30;99.90
17893;DHT22;9072;51.918;4.380;2023-09-07T04:22:15;18.30;99.90
17893;DHT22;9072;51.918;4.380;2023-09-07T04:24:43;18.30;99.90
17893;DHT22;9072;51.918;4.380;2023-09-07T04:27:10;18.40;99.90
17893;DHT22;9072;51.918;4.380;2023-09-07T04:29:37;18.40;99.90
17893;DHT22;9072;51.918;4.380;2023-09-07T04:32:06;18.40;99.90
17893;DHT22;9072;51.918;4.380;2023-09-07T04:34:34;18.40;99.90
17893;DHT22;9072;51.918;4.380;2023-09-07T04:37:01;18.40;99.90
17893;DHT22;9072;51.918;4.380;2023-09-07T04:39:29;18.40;99.90
17893;DHT22;9072;51.918;4.380;2023-09-07T04:41:56;18.50;99.90
17893;DHT22;9072;51.918;4.380;2023-09-07T04:44:23;18.50;99.90
17893;DHT22;9072;51.918;4.380;2023-09-07T04:46:50;18.50;99.90
17893;DHT22;9072;51.918;4.380;2023-09-07T04:49:22;18.50;99.90
17893;DHT22;9072;51.918;4.380;2023-09-07T04:51:49;18.50;99.90
17893;DHT22;9072;51.918;4.380;2023-09-07T04:54:19;18.50;99.90
17893;DHT22;9072;51.918;4.380;2023-09-07T04:56:47;18.50;99.90
17893;DHT22;9072;51.918;4.380;2023-09-07T04:59:17;18.50;99.90
17893;DHT22;9072;51.918;4.380;2023-09-07T05:01:44;18.50;99.90
17893;DHT22;9072;51.918;4.380;2023-09-07T05:04:11;18.40;99.90
17893;DHT22;9072;51.918;4.380;2023-09-07T05:06:40;18.40;99.90
17893;DHT22;9072;51.918;4.380;2023-09-07T05:09:07;18.40;99.90
17893;DHT22;9072;51.918;4.380;2023-09-07T05:11:34;18.50;99.90
17893;DHT22;9072;51.918;4.380;2023-09-07T05:14:01;18.50;99.90
17893;DHT22;9072;51.918;4.380;2023-09-07T05:16:28;18.50;99.90
17893;DHT22;9072;51.918;4.380;2023-09-07T05:18:56;18.50;99.90
17893;DHT22;9072;51.918;4.380;2023-09-07T05:21:23;18.50;99.90
17893;DHT22;9072;51.918;4.380;2023-09-07T05:23:51;18.60;99.90
17893;DHT22;9072;51.918;4.380;2023-09-07T05:26:21;18.60;99.90
17893;DHT22;9072;51.918;4.380;2023-09-07T05:28:50;18.60;99.90
17893;DHT22;9072;51.918;4.380;2023-09-07T05:31:17;18.70;99.90
17893;DHT22;9072;51.918;4.380;2023-09-07T05:33:44;18.70;99.90
17893;DHT22;9072;51.918;4.380;2023-09-07T05:36:11;18.70;99.90
17893;DHT22;9072;51.918;4.380;2023-09-07T05:38:39;18.70;99.90
17893;DHT22;9072;51.918;4.380;2023-09-07T05:41:08;18.80;99.90
17893;DHT22;9072;51.918;4.380;2023-09-07T05:43:35;18.80;99.90
17893;DHT22;9072;51.918;4.380;2023-09-07T05:46:05;18.80;99.90
17893;DHT22;9072;51.918;4.380;2023-09-07T05:48:34;18.90;99.90
17893;DHT22;9072;51.918;4.380;2023-09-07T05:51:02;18.90;99.90
17893;DHT22;9072;51.918;4.380;2023-09-07T05:53:32;19.00;99.90
17893;DHT22;9072;51.918;4.380;2023-09-07T05:55:59;19.00;99.90
17893;DHT22;9072;51.918;4.380;2023-09-07T05:58:28;19.00;99.90
17893;DHT22;9072;51.918;4.380;2023-09-07T06:00:55;19.00;99.90
17893;DHT22;9072;51.918;4.380;2023-09-07T06:03:23;19.10;99.90
17893;DHT22;9072;51.918;4.380;2023-09-07T06:05:50;19.00;99.90
17893;DHT22;9072;51.918;4.380;2023-09-07T06:08:20;19.00;99.90
17893;DHT22;9072;51.918;4.380;2023-09-07T06:10:48;19.00;99.90
17893;DHT22;9072;51.918;4.380;2023-09-07T06:13:17;19.00;99.90
17893;DHT22;9072;51.918;4.380;2023-09-07T06:15:48;19.00;99.90
17893;DHT22;9072;51.918;4.380;2023-09-07T06:18:15;19.00;99.90
17893;DHT22;9072;51.918;4.380;2023-09-07T06:20:42;19.10;99.90
17893;DHT22;9072;51.918;4.380;2023-09-07T06:23:09;19.20;99.90
17893;DHT22;9072;51.918;4.380;2023-09-07T06:25:37;19.10;99.90
17893;DHT22;9072;51.918;4.380;2023-09-07T06:28:05;19.20;99.90
17893;DHT22;9072;51.918;4.380;2023-09-07T06:30:32;19.20;99.90
17893;DHT22;9072;51.918;4.380;2023-09-07T06:33:01;19.20;99.90
17893;DHT22;9072;51.918;4.380;2023-09-07T06:35:28;19.30;99.90
17893;DHT22;9072;51.918;4.380;2023-09-07T06:37:55;19.30;99.90
17893;DHT22;9072;51.918;4.380;2023-09-07T06:40:25;19.40;99.90
17893;DHT22;9072;51.918;4.380;2023-09-07T06:42:52;19.40;99.90
17893;DHT22;9072;51.918;4.380;2023-09-07T06:45:22;19.40;99.90
17893;DHT22;9072;51.918;4.380;2023-09-07T06:47:50;19.40;99.90
17893;DHT22;9072;51.918;4.380;2023-09-07T06:50:20;19.40;99.90
17893;DHT22;9072;51.918;4.380;2023-09-07T06:52:47;19.50;99.90
17893;DHT22;9072;51.918;4.380;2023-09-07T06:55:14;19.50;99.90
17893;DHT22;9072;51.918;4.380;2023-09-07T06:57:41;19.50;99.90
17893;DHT22;9072;51.918;4.380;2023-09-07T07:00:11;19.60;99.90
17893;DHT22;9072;51.918;4.380;2023-09-07T07:02:39;19.60;99.90
17893;DHT22;9072;51.918;4.380;2023-09-07T07:05:06;19.70;99.90
17893;DHT22;9072;51.918;4.380;2023-09-07T07:07:35;19.70;99.90
17893;DHT22;9072;51.918;4.380;2023-09-07T07:10:02;19.70;99.90
17893;DHT22;9072;51.918;4.380;2023-09-07T07:12:32;19.80;99.90
17893;DHT22;9072;51.918;4.380;2023-09-07T07:15:00;19.80;99.90
17893;DHT22;9072;51.918;4.380;2023-09-07T07:17:31;19.90;99.90
17893;DHT22;9072;51.918;4.380;2023-09-07T07:19:58;20.00;99.90
17893;DHT22;9072;51.918;4.380;2023-09-07T07:22:28;20.00;99.90
17893;DHT22;9072;51.918;4.380;2023-09-07T07:24:57;20.10;99.90
17893;DHT22;9072;51.918;4.380;2023-09-07T07:27:29;20.10;99.90
17893;DHT22;9072;51.918;4.380;2023-09-07T07:29:56;20.20;99.90
17893;DHT22;9072;51.918;4.380;2023-09-07T07:32:25;20.20;99.90
17893;DHT22;9072;51.918;4.380;2023-09-07T07:34:56;20.30;99.90
17893;DHT22;9072;51.918;4.380;2023-09-07T07:37:26;20.40;99.90
17893;DHT22;9072;51.918;4.380;2023-09-07T07:39:53;20.40;99.90
17893;DHT22;9072;51.918;4.380;2023-09-07T07:42:24;20.50;99.90
17893;DHT22;9072;51.918;4.380;2023-09-07T07:44:54;20.50;99.90
17893;DHT22;9072;51.918;4.380;2023-09-07T07:47:21;20.60;99.90
17893;DHT22;9072;51.918;4.380;2023-09-07T07:49:48;20.60;99.90
17893;DHT22;9072;51.918;4.380;2023-09-07T07:52:15;20.70;99.90
17893;DHT22;9072;51.918;4.380;2023-09-07T07:54:42;20.80;99.90
17893;DHT22;9072;51.918;4.380;2023-09-07T07:57:09;20.90;99.90
17893;DHT22;9072;51.918;4.380;2023-09-07T07:59:37;21.00;99.90
17893;DHT22;9072;51.918;4.380;2023-09-07T08:02:05;21.10;99.90
17893;DHT22;9072;51.918;4.380;2023-09-07T08:04:32;21.20;99.90
17893;DHT22;9072;51.918;4.380;2023-09-07T08:07:01;21.30;99.90
17893;DHT22;9072;51.918;4.380;2023-09-07T08:09:30;21.30;99.90
17893;DHT22;9072;51.918;4.380;2023-09-07T08:11:59;21.40;99.90
17893;DHT22;9072;51.918;4.380;2023-09-07T08:14:30;21.50;99.90
17893;DHT22;9072;51.918;4.380;2023-09-07T08:16:59;21.70;99.90
17893;DHT22;9072;51.918;4.380;2023-09-07T08:19:27;21.80;99.90
17893;DHT22;9072;51.918;4.380;2023-09-07T08:21:55;22.00;99.90
17893;DHT22;9072;51.918;4.380;2023-09-07T08:24:22;22.30;99.90
17893;DHT22;9072;51.918;4.380;2023-09-07T08:26:49;22.90;99.90
17893;DHT22;9072;51.918;4.380;2023-09-07T08:29:20;24.20;99.90
17893;DHT22;9072;51.918;4.380;2023-09-07T08:31:47;25.80;99.90
17893;DHT22;9072;51.918;4.380;2023-09-07T08:34:16;27.20;99.90
17893;DHT22;9072;51.918;4.380;2023-09-07T08:36:44;28.30;99.90
17893;DHT22;9072;51.918;4.380;2023-09-07T08:39:12;29.20;99.90
17893;DHT22;9072;51.918;4.380;2023-09-07T08:41:40;30.00;99.90
17893;DHT22;9072;51.918;4.380;2023-09-07T08:44:10;30.40;99.90
17893;DHT22;9072;51.918;4.380;2023-09-07T08:46:37;31.00;99.90
17893;DHT22;9072;51.918;4.380;2023-09-07T08:49:07;31.30;99.90
17893;DHT22;9072;51.918;4.380;2023-09-07T08:51:36;31.50;99.90
17893;DHT22;9072;51.918;4.380;2023-09-07T08:54:08;32.10;99.90
17893;DHT22;9072;51.918;4.380;2023-09-07T08:56:38;32.20;99.90
17893;DHT22;9072;51.918;4.380;2023-09-07T08:59:05;32.40;99.90
17893;DHT22;9072;51.918;4.380;2023-09-07T09:01:32;32.40;99.90
17893;DHT22;9072;51.918;4.380;2023-09-07T09:03:59;32.00;99.90
17893;DHT22;9072;51.918;4.380;2023-09-07T09:06:29;32.40;99.90
17893;DHT22;9072;51.918;4.380;2023-09-07T09:08:58;33.00;99.90
17893;DHT22;9072;51.918;4.380;2023-09-07T09:11:25;33.20;99.90
17893;DHT22;9072;51.918;4.380;2023-09-07T09:13:54;33.00;99.90
17893;DHT22;9072;51.918;4.380;2023-09-07T09:16:21;33.30;99.90
17893;DHT22;9072;51.918;4.380;2023-09-07T09:18:55;33.60;99.90
17893;DHT22;9072;51.918;4.380;2023-09-07T09:21:26;34.00;99.90
17893;DHT22;9072;51.918;4.380;2023-09-07T09:23:56;33.20;99.90
17893;DHT22;9072;51.918;4.380;2023-09-07T09:26:24;33.30;99.90
17893;DHT22;9072;51.918;4.380;2023-09-07T09:28:51;33.10;99.90
17893;DHT22;9072;51.918;4.380;2023-09-07T09:31:21;32.80;99.90
17893;DHT22;9072;51.918;4.380;2023-09-07T09:33:53;33.30;99.90
17893;DHT22;9072;51.918;4.380;2023-09-07T09:36:20;33.70;99.90
17893;DHT22;9072;51.918;4.380;2023-09-07T09:38:48;33.80;99.90
17893;DHT22;9072;51.918;4.380;2023-09-07T09:41:18;33.90;99.90
17893;DHT22;9072;51.918;4.380;2023-09-07T09:43:48;34.30;99.90
17893;DHT22;9072;51.918;4.380;2023-09-07T09:46:19;33.60;99.90
17893;DHT22;9072;51.918;4.380;2023-09-07T09:48:47;33.30;99.90
17893;DHT22;9072;51.918;4.380;2023-09-07T09:51:15;33.20;99.90
17893;DHT22;9072;51.918;4.380;2023-09-07T09:53:42;32.80;99.90
17893;DHT22;9072;51.918;4.380;2023-09-07T09:56:09;32.60;99.90
17893;DHT22;9072;51.918;4.380;2023-09-07T09:58:37;32.70;99.90
17893;DHT22;9072;51.918;4.380;2023-09-07T10:01:06;32.90;99.90
17893;DHT22;9072;51.918;4.380;2023-09-07T10:03:44;32.60;99.90
17893;DHT22;9072;51.918;4.380;2023-09-07T10:06:18;32.80;99.90
17893;DHT22;9072;51.918;4.380;2023-09-07T10:08:53;32.90;99.90
17893;DHT22;9072;51.918;4.380;2023-09-07T10:11:27;33.50;99.90
17893;DHT22;9072;51.918;4.380;2023-09-07T10:13:59;33.50;99.90
17893;DHT22;9072;51.918;4.380;2023-09-07T10:16:28;33.10;99.90
17893;DHT22;9072;51.918;4.380;2023-09-07T10:18:55;33.30;99.90
17893;DHT22;9072;51.918;4.380;2023-09-07T10:21:25;33.50;99.90
17893;DHT22;9072;51.918;4.380;2023-09-07T10:23:55;32.90;99.90
17893;DHT22;9072;51.918;4.380;2023-09-07T10:26:24;33.10;99.90
17893;DHT22;9072;51.918;4.380;2023-09-07T10:28:59;32.40;99.90
17893;DHT22;9072;51.918;4.380;2023-09-07T10:31:30;32.00;99.90
17893;DHT22;9072;51.918;4.380;2023-09-07T10:34:08;32.20;99.90
17893;DHT22;9072;51.918;4.380;2023-09-07T10:36:36;32.20;99.90
17893;DHT22;9072;51.918;4.380;2023-09-07T10:39:04;31.80;99.90
17893;DHT22;9072;51.918;4.380;2023-09-07T10:41:41;32.10;99.90
17893;DHT22;9072;51.918;4.380;2023-09-07T10:44:09;32.80;99.90
17893;DHT22;9072;51.918;4.380;2023-09-07T10:46:39;32.60;99.90
17893;DHT22;9072;51.918;4.380;2023-09-07T10:49:07;32.30;99.90
17893;DHT22;9072;51.918;4.380;2023-09-07T10:51:46;32.60;99.90
17893;DHT22;9072;51.918;4.380;2023-09-07T10:54:16;32.60;99.90
17893;DHT22;9072;51.918;4.380;2023-09-07T10:56:46;32.50;99.90
17893;DHT22;9072;51.918;4.380;2023-09-07T10:59:14;32.40;99.90
17893;DHT22;9072;51.918;4.380;2023-09-07T11:01:44;32.50;99.90
17893;DHT22;9072;51.918;4.380;2023-09-07T11:04:11;32.60;99.90
17893;DHT22;9072;51.918;4.380;2023-09-07T11:06:40;32.70;99.90
17893;DHT22;9072;51.918;4.380;2023-09-07T11:09:08;32.90;99.90
17893;DHT22;9072;51.918;4.380;2023-09-07T11:11:36;33.30;99.90
17893;DHT22;9072;51.918;4.380;2023-09-07T11:14:03;33.00;99.90
17893;DHT22;9072;51.918;4.380;2023-09-07T11:16:33;33.40;99.90
17893;DHT22;9072;51.918;4.380;2023-09-07T11:19:04;33.30;99.90
17893;DHT22;9072;51.918;4.380;2023-09-07T11:21:32;32.60;99.90
17893;DHT22;9072;51.918;4.380;2023-09-07T11:24:00;32.40;99.90
17893;DHT22;9072;51.918;4.380;2023-09-07T11:26:40;32.40;99.90
17893;DHT22;9072;51.918;4.380;2023-09-07T11:29:08;32.50;99.90
17893;DHT22;9072;51.918;4.380;2023-09-07T11:31:38;32.20;99.90
17893;DHT22;9072;51.918;4.380;2023-09-07T11:34:10;32.10;99.90
17893;DHT22;9072;51.918;4.380;2023-09-07T11:36:39;32.20;99.90
17893;DHT22;9072;51.918;4.380;2023-09-07T11:39:06;32.30;99.90
17893;DHT22;9072;51.918;4.380;2023-09-07T11:41:39;32.50;99.90
17893;DHT22;9072;51.918;4.380;2023-09-07T11:44:07;32.50;99.90
17893;DHT22;9072;51.918;4.380;2023-09-07T11:46:34;32.40;99.90
17893;DHT22;9072;51.918;4.380;2023-09-07T11:49:01;31.90;99.90
17893;DHT22;9072;51.918;4.380;2023-09-07T11:51:32;32.30;99.90
17893;DHT22;9072;51.918;4.380;2023-09-07T11:53:59;32.40;99.90
17893;DHT22;9072;51.918;4.380;2023-09-07T11:56:26;32.20;99.90
17893;DHT22;9072;51.918;4.380;2023-09-07T11:58:53;32.30;99.90
17893;DHT22;9072;51.918;4.380;2023-09-07T12:01:21;32.00;99.90
17893;DHT22;9072;51.918;4.380;2023-09-07T12:03:48;31.80;99.90
17893;DHT22;9072;51.918;4.380;2023-09-07T12:06:16;32.00;99.90
17893;DHT22;9072;51.918;4.380;2023-09-07T12:09:01;32.00;99.90
17893;DHT22;9072;51.918;4.380;2023-09-07T12:11:29;31.90;99.90
17893;DHT22;9072;51.918;4.380;2023-09-07T12:13:57;31.90;99.90
17893;DHT22;9072;51.918;4.380;2023-09-07T12:16:25;31.60;99.90
17893;DHT22;9072;51.918;4.380;2023-09-07T12:18:53;31.50;99.90
17893;DHT22;9072;51.918;4.380;2023-09-07T12:21:23;31.40;99.90
17893;DHT22;9072;51.918;4.380;2023-09-07T12:23:56;31.40;99.90
17893;DHT22;9072;51.918;4.380;2023-09-07T12:26:23;31.50;99.90
17893;DHT22;9072;51.918;4.380;2023-09-07T12:28:51;31.90;99.90
17893;DHT22;9072;51.918;4.380;2023-09-07T12:31:18;31.90;99.90
17893;DHT22;9072;51.918;4.380;2023-09-07T12:33:49;31.60;99.90
17893;DHT22;9072;51.918;4.380;2023-09-07T12:36:18;31.70;99.90
17893;DHT22;9072;51.918;4.380;2023-09-07T12:38:47;31.70;99.90
17893;DHT22;9072;51.918;4.380;2023-09-07T12:41:17;31.80;99.90
17893;DHT22;9072;51.918;4.380;2023-09-07T12:43:44;31.70;99.90
17893;DHT22;9072;51.918;4.380;2023-09-07T12:46:15;31.40;99.90
17893;DHT22;9072;51.918;4.380;2023-09-07T12:48:42;31.30;99.90
17893;DHT22;9072;51.918;4.380;2023-09-07T12:51:12;31.30;99.90
17893;DHT22;9072;51.918;4.380;2023-09-07T12:53:52;31.30;99.90
17893;DHT22;9072;51.918;4.380;2023-09-07T12:56:23;31.40;99.90
17893;DHT22;9072;51.918;4.380;2023-09-07T12:58:51;31.50;99.90
17893;DHT22;9072;51.918;4.380;2023-09-07T13:01:18;31.70;99.90
17893;DHT22;9072;51.918;4.380;2023-09-07T13:03:48;31.60;99.90
17893;DHT22;9072;51.918;4.380;2023-09-07T13:06:15;31.50;99.90
17893;DHT22;9072;51.918;4.380;2023-09-07T13:08:43;31.20;99.90
17893;DHT22;9072;51.918;4.380;2023-09-07T13:11:10;31.20;99.90
17893;DHT22;9072;51.918;4.380;2023-09-07T13:13:39;31.20;99.90
17893;DHT22;9072;51.918;4.380;2023-09-07T13:16:07;31.20;99.90
17893;DHT22;9072;51.918;4.380;2023-09-07T13:18:35;31.20;99.90
17893;DHT22;9072;51.918;4.380;2023-09-07T13:21:02;31.20;99.90
17893;DHT22;9072;51.918;4.380;2023-09-07T13:23:30;31.30;99.90
17893;DHT22;9072;51.918;4.380;2023-09-07T13:25:58;31.20;99.90
17893;DHT22;9072;51.918;4.380;2023-09-07T13:28:28;31.30;99.90
17893;DHT22;9072;51.918;4.380;2023-09-07T13:30:57;31.30;99.90
17893;DHT22;9072;51.918;4.380;2023-09-07T13:33:24;31.30;99.90
17893;DHT22;9072;51.918;4.380;2023-09-07T13:35:51;31.30;99.90
17893;DHT22;9072;51.918;4.380;2023-09-07T13:38:19;31.20;99.90
17893;DHT22;9072;51.918;4.380;2023-09-07T13:40:46;30.80;99.90
17893;DHT22;9072;51.918;4.380;2023-09-07T13:43:13;30.80;99.90
17893;DHT22;9072;51.918;4.380;2023-09-07T13:45:40;31.00;99.90
17893;DHT22;9072;51.918;4.380;2023-09-07T13:48:11;31.10;99.90
17893;DHT22;9072;51.918;4.380;2023-09-07T13:50:39;31.20;99.90
17893;DHT22;9072;51.918;4.380;2023-09-07T13:53:09;31.40;99.90
17893;DHT22;9072;51.918;4.380;2023-09-07T13:55:38;31.50;99.90
17893;DHT22;9072;51.918;4.380;2023-09-07T13:58:10;31.60;99.90
17893;DHT22;9072;51.918;4.380;2023-09-07T14:00:38;31.70;99.90
17893;DHT22;9072;51.918;4.380;2023-09-07T14:03:08;31.70;99.90
17893;DHT22;9072;51.918;4.380;2023-09-07T14:05:38;31.70;99.90
17893;DHT22;9072;51.918;4.380;2023-09-07T14:08:08;31.80;99.90
17893;DHT22;9072;51.918;4.380;2023-09-07T14:10:36;31.90;99.90
17893;DHT22;9072;51.918;4.380;2023-09-07T14:13:03;31.90;99.90
17893;DHT22;9072;51.918;4.380;2023-09-07T14:15:31;31.90;99.90
17893;DHT22;9072;51.918;4.380;2023-09-07T14:17:58;32.00;99.90
17893;DHT22;9072;51.918;4.380;2023-09-07T14:20:28;32.10;99.90
17893;DHT22;9072;51.918;4.380;2023-09-07T14:23:00;32.10;99.90
17893;DHT22;9072;51.918;4.380;2023-09-07T14:25:27;32.20;99.90
17893;DHT22;9072;51.918;4.380;2023-09-07T14:27:56;32.30;99.90
17893;DHT22;9072;51.918;4.380;2023-09-07T14:30:23;32.40;99.90
17893;DHT22;9072;51.918;4.380;2023-09-07T14:32:51;32.30;99.90
17893;DHT22;9072;51.918;4.380;2023-09-07T14:35:29;32.40;99.60
17893;DHT22;9072;51.918;4.380;2023-09-07T14:38:01;32.50;99.90
17893;DHT22;9072;51.918;4.380;2023-09-07T14:40:28;32.70;99.90
17893;DHT22;9072;51.918;4.380;2023-09-07T14:42:59;32.80;99.70
17893;DHT22;9072;51.918;4.380;2023-09-07T14:45:26;32.90;99.50
17893;DHT22;9072;51.918;4.380;2023-09-07T14:47:55;32.90;99.40
17893;DHT22;9072;51.918;4.380;2023-09-07T14:50:23;32.80;99.10
17893;DHT22;9072;51.918;4.380;2023-09-07T14:52:53;32.60;99.20
17893;DHT22;9072;51.918;4.380;2023-09-07T14:55:22;32.50;99.40
17893;DHT22;9072;51.918;4.380;2023-09-07T14:57:53;32.50;99.60
17893;DHT22;9072;51.918;4.380;2023-09-07T15:00:20;32.40;99.90
17893;DHT22;9072;51.918;4.380;2023-09-07T15:02:51;32.30;99.90
17893;DHT22;9072;51.918;4.380;2023-09-07T15:05:19;32.40;99.90
17893;DHT22;9072;51.918;4.380;2023-09-07T15:07:51;32.40;99.90
17893;DHT22;9072;51.918;4.380;2023-09-07T15:10:20;32.40;99.90
17893;DHT22;9072;51.918;4.380;2023-09-07T15:12:49;32.40;99.90
17893;DHT22;9072;51.918;4.380;2023-09-07T15:15:17;32.40;99.90
17893;DHT22;9072;51.918;4.380;2023-09-07T15:17:47;32.50;99.90
17893;DHT22;9072;51.918;4.380;2023-09-07T15:20:16;32.50;99.90
17893;DHT22;9072;51.918;4.380;2023-09-07T15:22:44;32.50;99.90
17893;DHT22;9072;51.918;4.380;2023-09-07T15:25:10;32.50;99.90
17893;DHT22;9072;51.918;4.380;2023-09-07T15:27:39;32.60;99.90
17893;DHT22;9072;51.918;4.380;2023-09-07T15:30:07;32.60;99.90
17893;DHT22;9072;51.918;4.380;2023-09-07T15:32:35;32.70;99.90
17893;DHT22;9072;51.918;4.380;2023-09-07T15:35:06;32.70;99.90
17893;DHT22;9072;51.918;4.380;2023-09-07T15:37:34;32.60;99.90
17893;DHT22;9072;51.918;4.380;2023-09-07T15:40:02;32.50;99.90
17893;DHT22;9072;51.918;4.380;2023-09-07T15:42:35;32.60;99.90
17893;DHT22;9072;51.918;4.380;2023-09-07T15:45:05;32.60;99.90
17893;DHT22;9072;51.918;4.380;2023-09-07T15:47:34;32.50;99.90
17893;DHT22;9072;51.918;4.380;2023-09-07T15:50:01;32.40;99.90
17893;DHT22;9072;51.918;4.380;2023-09-07T15:52:30;32.30;99.90